createdAt,value
2023-02-15T00:00:48.117Z,-0.70
2023-02-15T00:01:48.087Z,-0.72
2023-02-15T00:02:48.068Z,-0.70
2023-02-15T00:03:48.033Z,-0.69
2023-02-15T00:04:48.031Z,-0.65
2023-02-15T00:05:48.042Z,-0.69
2023-02-15T00:06:48.046Z,-0.72
2023-02-15T00:07:47.992Z,-0.72
2023-02-15T00:08:47.991Z,-0.79
2023-02-15T00:09:48.003Z,-0.85
2023-02-15T00:10:47.970Z,-0.95
2023-02-15T00:11:47.951Z,-0.98
2023-02-15T00:12:47.929Z,-0.97
2023-02-15T00:13:47.910Z,-1.02
2023-02-15T00:14:47.923Z,-1.02
2023-02-15T00:15:47.893Z,-1.02
2023-02-15T00:16:47.906Z,-1.02
2023-02-15T00:17:47.865Z,-1.02
2023-02-15T00:18:47.847Z,-1.04
2023-02-15T00:19:47.836Z,-1.05
2023-02-15T00:20:47.866Z,-1.02
2023-02-15T00:21:47.810Z,-0.99
2023-02-15T00:22:47.817Z,-0.98
2023-02-15T00:23:47.906Z,-0.97
2023-02-15T00:24:47.776Z,-0.95
2023-02-15T00:25:47.776Z,-0.92
2023-02-15T00:26:47.747Z,-0.95
2023-02-15T00:27:47.728Z,-0.99
2023-02-15T00:28:47.744Z,-1.02
2023-02-15T00:29:47.705Z,-0.98
2023-02-15T00:30:47.768Z,-0.98
2023-02-15T00:31:47.850Z,-0.97
2023-02-15T00:32:47.683Z,-0.94
2023-02-15T00:33:47.669Z,-1.02
2023-02-15T00:34:47.645Z,-1.04
2023-02-15T00:35:47.656Z,-1.09
2023-02-15T00:36:47.641Z,-1.05
2023-02-15T00:37:47.622Z,-1.10
2023-02-15T00:38:47.602Z,-1.04
2023-02-15T00:39:47.600Z,-0.94
2023-02-15T00:40:47.595Z,-0.58
2023-02-15T00:41:47.552Z,-0.60
2023-02-15T00:42:47.543Z,-0.18
2023-02-15T00:43:47.539Z,-0.19
2023-02-15T00:44:47.519Z,0.02
2023-02-15T00:45:47.529Z,0.02
2023-02-15T00:46:47.521Z,0.03
2023-02-15T00:47:47.484Z,-0.03
2023-02-15T00:48:47.498Z,-0.01
2023-02-15T00:49:47.488Z,-0.03
2023-02-15T00:50:47.477Z,-0.01
2023-02-15T00:51:47.464Z,0.08
2023-02-15T00:52:47.442Z,0.17
2023-02-15T00:53:47.398Z,0.31
2023-02-15T00:54:47.405Z,0.33
2023-02-15T00:55:47.389Z,0.35
2023-02-15T00:56:47.386Z,0.38
2023-02-15T00:57:47.364Z,0.35
2023-02-15T00:58:47.348Z,0.36
2023-02-15T00:59:47.350Z,0.33
2023-02-15T01:00:47.347Z,0.35
2023-02-15T01:01:47.318Z,0.29
2023-02-15T01:02:47.314Z,0.29
2023-02-15T01:03:47.302Z,0.29
2023-02-15T01:04:47.354Z,0.26
2023-02-15T01:05:47.257Z,0.28
2023-02-15T01:06:47.253Z,0.24
2023-02-15T01:07:47.248Z,0.24
2023-02-15T01:08:47.220Z,0.21
2023-02-15T01:09:47.217Z,0.26
2023-02-15T01:10:47.218Z,0.28
2023-02-15T01:11:47.188Z,0.32
2023-02-15T01:12:47.178Z,0.36
2023-02-15T01:13:47.157Z,0.35
2023-02-15T01:14:47.150Z,0.33
2023-02-15T01:15:47.225Z,0.33
2023-02-15T01:16:47.126Z,0.32
2023-02-15T01:17:47.116Z,0.29
2023-02-15T01:18:47.124Z,0.29
2023-02-15T01:19:47.095Z,0.26
2023-02-15T01:20:47.089Z,0.21
2023-02-15T01:21:47.077Z,0.17
2023-02-15T01:22:47.055Z,0.11
2023-02-15T01:23:47.079Z,0.10
2023-02-15T01:24:47.033Z,0.08
2023-02-15T01:25:47.994Z,0.11
2023-02-15T01:26:47.007Z,0.11
2023-02-15T01:27:46.995Z,0.14
2023-02-15T01:28:47.004Z,0.14
2023-02-15T01:29:46.953Z,0.13
2023-02-15T01:30:47.105Z,0.14
2023-02-15T01:31:47.044Z,0.15
2023-02-15T01:32:46.955Z,0.15
2023-02-15T01:33:46.944Z,0.07
2023-02-15T01:34:46.903Z,0.08
2023-02-15T01:35:46.907Z,0.04
2023-02-15T01:36:46.884Z,0.03
2023-02-15T01:37:46.871Z,-0.03
2023-02-15T01:38:46.862Z,-0.01
2023-02-15T01:39:46.832Z,-0.05
2023-02-15T01:40:46.833Z,-0.07
2023-02-15T01:41:46.801Z,-0.08
2023-02-15T01:42:46.800Z,-0.08
2023-02-15T01:43:46.793Z,-0.14
2023-02-15T01:44:46.790Z,-0.15
2023-02-15T01:45:46.808Z,-0.11
2023-02-15T01:46:46.761Z,-0.10
2023-02-15T01:47:46.729Z,-0.07
2023-02-15T01:48:46.740Z,-0.07
2023-02-15T01:49:46.720Z,-0.04
2023-02-15T01:50:46.718Z,-0.03
2023-02-15T01:51:46.697Z,-0.03
2023-02-15T01:52:46.687Z,-0.05
2023-02-15T01:53:46.664Z,-0.14
2023-02-15T01:54:46.656Z,-0.25
2023-02-15T01:55:46.644Z,-0.23
2023-02-15T01:56:46.632Z,-0.28
2023-02-15T01:57:46.634Z,-0.26
2023-02-15T01:58:46.612Z,-0.28
2023-02-15T01:59:46.589Z,-0.28
2023-02-15T02:00:46.593Z,-0.36
2023-02-15T02:01:46.618Z,-0.37
2023-02-15T02:02:46.590Z,-0.52
2023-02-15T02:03:46.531Z,-0.52
2023-02-15T02:04:46.519Z,-0.54
2023-02-15T02:05:46.520Z,-0.58
2023-02-15T02:06:46.497Z,-0.58
2023-02-15T02:07:46.481Z,-0.62
2023-02-15T02:08:46.488Z,-0.62
2023-02-15T02:09:46.472Z,-0.61
2023-02-15T02:10:46.459Z,-0.61
2023-02-15T02:11:46.446Z,-0.61
2023-02-15T02:12:46.431Z,-0.70
2023-02-15T02:13:46.420Z,-0.75
2023-02-15T02:14:46.407Z,-0.76
2023-02-15T02:15:46.414Z,-0.78
2023-02-15T02:16:46.391Z,-0.82
2023-02-15T02:17:46.404Z,-0.82
2023-02-15T02:18:46.353Z,-0.80
2023-02-15T02:19:46.335Z,-0.75
2023-02-15T02:20:46.335Z,-0.73
2023-02-15T02:21:46.296Z,-0.65
2023-02-15T02:22:46.296Z,-0.65
2023-02-15T02:23:46.290Z,-0.61
2023-02-15T02:24:46.265Z,-0.64
2023-02-15T02:25:46.264Z,-0.72
2023-02-15T02:26:46.234Z,-0.78
2023-02-15T02:27:53.727Z,-0.78
2023-02-15T02:28:53.722Z,-0.82
2023-02-15T02:29:53.752Z,-0.83
2023-02-15T02:30:46.374Z,-0.83
2023-02-15T02:31:46.291Z,-0.92
2023-02-15T02:32:46.169Z,-0.91
2023-02-15T02:33:46.158Z,-0.86
2023-02-15T02:34:46.141Z,-0.78
2023-02-15T02:35:54.816Z,-0.78
2023-02-15T02:36:53.639Z,-0.73
2023-02-15T02:37:46.101Z,-0.60
2023-02-15T02:38:46.121Z,-0.54
2023-02-15T02:39:46.122Z,-0.46
2023-02-15T02:40:46.109Z,-0.46
2023-02-15T02:41:46.058Z,-0.43
2023-02-15T02:42:46.051Z,-0.37
2023-02-15T02:43:46.031Z,-0.26
2023-02-15T02:44:46.038Z,-0.18
2023-02-15T02:45:46.029Z,-0.16
2023-02-15T02:46:46.075Z,-0.16
2023-02-15T02:47:46.004Z,-0.03
2023-02-15T02:48:45.961Z,0.02
2023-02-15T02:49:45.952Z,0.07
2023-02-15T02:50:45.950Z,0.08
2023-02-15T02:51:45.951Z,0.07
2023-02-15T02:52:45.945Z,0.10
2023-02-15T02:53:45.898Z,0.10
2023-02-15T02:54:45.910Z,0.08
2023-02-15T02:55:45.889Z,0.07
2023-02-15T02:56:45.879Z,0.04
2023-02-15T02:57:45.868Z,-0.03
2023-02-15T02:58:45.851Z,-0.05
2023-02-15T02:59:45.827Z,-0.07
2023-02-15T03:00:45.818Z,-0.07
2023-02-15T03:01:45.888Z,-0.08
2023-02-15T03:02:45.858Z,-0.10
2023-02-15T03:03:45.777Z,-0.11
2023-02-15T03:04:45.776Z,-0.11
2023-02-15T03:05:45.748Z,-0.14
2023-02-15T03:06:45.766Z,-0.14
2023-02-15T03:07:45.747Z,-0.14
2023-02-15T03:08:45.736Z,-0.15
2023-02-15T03:09:45.718Z,-0.18
2023-02-15T03:10:45.687Z,-0.18
2023-02-15T03:11:45.706Z,-0.18
2023-02-15T03:12:45.670Z,-0.18
2023-02-15T03:13:45.656Z,-0.18
2023-02-15T03:14:45.638Z,-0.16
2023-02-15T03:15:45.634Z,-0.15
2023-02-15T03:16:45.637Z,-0.18
2023-02-15T03:17:45.598Z,-0.21
2023-02-15T03:18:45.596Z,-0.21
2023-02-15T03:19:45.566Z,-0.22
2023-02-15T03:20:45.574Z,-0.22
2023-02-15T03:21:45.556Z,-0.25
2023-02-15T03:22:45.560Z,-0.26
2023-02-15T03:23:45.538Z,-0.25
2023-02-15T03:24:45.525Z,-0.26
2023-02-15T03:25:45.556Z,-0.28
2023-02-15T03:26:45.516Z,-0.28
2023-02-15T03:27:45.487Z,-0.28
2023-02-15T03:28:45.489Z,-0.29
2023-02-15T03:29:45.456Z,-0.29
2023-02-15T03:30:45.448Z,-0.37
2023-02-15T03:31:45.544Z,-0.39
2023-02-15T03:32:45.431Z,-0.42
2023-02-15T03:33:45.407Z,-0.51
2023-02-15T03:34:45.410Z,-0.54
2023-02-15T03:35:45.372Z,-0.54
2023-02-15T03:36:46.658Z,-0.55
2023-02-15T03:37:45.348Z,-0.57
2023-02-15T03:38:45.355Z,-0.58
2023-02-15T03:39:45.326Z,-0.60
2023-02-15T03:40:45.314Z,-0.67
2023-02-15T03:41:45.314Z,-0.65
2023-02-15T03:42:45.284Z,-0.67
2023-02-15T03:43:45.272Z,-0.65
2023-02-15T03:44:45.260Z,-0.65
2023-02-15T03:45:45.251Z,-0.65
2023-02-15T03:46:45.298Z,-0.64
2023-02-15T03:47:45.257Z,-0.61
2023-02-15T03:48:45.220Z,-0.64
2023-02-15T03:49:45.199Z,-0.61
2023-02-15T03:50:45.189Z,-0.61
2023-02-15T03:51:45.180Z,-0.60
2023-02-15T03:52:45.153Z,-0.61
2023-02-15T03:53:45.152Z,-0.61
2023-02-15T03:54:45.140Z,-0.64
2023-02-15T03:55:45.138Z,-0.69
2023-02-15T03:56:45.179Z,-0.73
2023-02-15T03:57:45.118Z,-0.78
2023-02-15T03:58:45.097Z,-0.89
2023-02-15T03:59:45.096Z,-0.94
2023-02-15T04:00:45.116Z,-0.95
2023-02-15T04:01:45.076Z,-0.92
2023-02-15T04:02:45.056Z,-0.92
2023-02-15T04:03:45.027Z,-0.94
2023-02-15T04:04:45.019Z,-0.95
2023-02-15T04:05:45.021Z,-0.97
2023-02-15T04:06:44.988Z,-1.05
2023-02-15T04:07:44.984Z,-1.16
2023-02-15T04:08:44.972Z,-1.17
2023-02-15T04:09:44.933Z,-1.22
2023-02-15T04:10:44.933Z,-1.20
2023-02-15T04:11:44.934Z,-1.19
2023-02-15T04:12:44.938Z,-1.27
2023-02-15T04:13:44.913Z,-1.33
2023-02-15T04:14:44.877Z,-1.31
2023-02-15T04:15:44.883Z,-1.41
2023-02-15T04:16:44.906Z,-1.43
2023-02-15T04:17:44.841Z,-1.51
2023-02-15T04:18:44.839Z,-1.55
2023-02-15T04:19:44.823Z,-1.58
2023-02-15T04:20:44.809Z,-1.59
2023-02-15T04:21:44.818Z,-1.59
2023-02-15T04:22:44.779Z,-1.61
2023-02-15T04:23:44.777Z,-1.62
2023-02-15T04:24:44.756Z,-1.64
2023-02-15T04:25:44.755Z,-1.59
2023-02-15T04:26:44.745Z,-1.59
2023-02-15T04:27:44.730Z,-1.59
2023-02-15T04:28:44.718Z,-1.64
2023-02-15T04:29:44.693Z,-1.62
2023-02-15T04:30:44.683Z,-1.66
2023-02-15T04:31:44.769Z,-1.64
2023-02-15T04:32:44.710Z,-1.69
2023-02-15T04:33:44.649Z,-1.70
2023-02-15T04:34:44.653Z,-1.69
2023-02-15T04:35:44.622Z,-1.70
2023-02-15T04:36:44.618Z,-1.80
2023-02-15T04:37:44.597Z,-1.80
2023-02-15T04:38:44.589Z,-1.77
2023-02-15T04:39:44.561Z,-1.76
2023-02-15T04:40:44.539Z,-1.80
2023-02-15T04:41:44.549Z,-1.79
2023-02-15T04:42:44.532Z,-1.77
2023-02-15T04:43:44.519Z,-1.76
2023-02-15T04:44:44.507Z,-1.72
2023-02-15T04:45:44.563Z,-1.73
2023-02-15T04:46:44.491Z,-1.73
2023-02-15T04:47:44.466Z,-1.72
2023-02-15T04:48:44.450Z,-1.69
2023-02-15T04:49:44.446Z,-1.64
2023-02-15T04:50:44.448Z,-1.64
2023-02-15T04:51:44.431Z,-1.59
2023-02-15T04:52:44.398Z,-1.55
2023-02-15T04:53:44.403Z,-1.56
2023-02-15T04:54:44.390Z,-1.56
2023-02-15T04:55:44.386Z,-1.56
2023-02-15T04:56:44.371Z,-1.56
2023-02-15T04:57:44.346Z,-1.54
2023-02-15T04:58:44.332Z,-1.55
2023-02-15T04:59:44.314Z,-1.45
2023-02-15T05:00:44.367Z,-1.46
2023-02-15T05:01:44.308Z,-1.46
2023-02-15T05:02:44.272Z,-1.43
2023-02-15T05:03:44.264Z,-1.43
2023-02-15T05:04:44.254Z,-1.46
2023-02-15T05:05:44.247Z,-1.48
2023-02-15T05:06:44.253Z,-1.48
2023-02-15T05:07:44.228Z,-1.48
2023-02-15T05:08:44.196Z,-1.52
2023-02-15T05:09:44.214Z,-1.55
2023-02-15T05:10:44.200Z,-1.61
2023-02-15T05:11:44.192Z,-1.55
2023-02-15T05:12:44.152Z,-1.52
2023-02-15T05:13:44.139Z,-1.49
2023-02-15T05:14:44.127Z,-1.49
2023-02-15T05:15:44.948Z,-1.49
2023-02-15T05:16:44.207Z,-1.51
2023-02-15T05:17:44.103Z,-1.54
2023-02-15T05:18:44.085Z,-1.58
2023-02-15T05:19:44.072Z,-1.58
2023-02-15T05:20:44.049Z,-1.73
2023-02-15T05:21:44.051Z,-1.72
2023-02-15T05:22:44.018Z,-1.76
2023-02-15T05:23:44.049Z,-1.80
2023-02-15T05:24:44.025Z,-1.79
2023-02-15T05:25:44.000Z,-1.73
2023-02-15T05:26:43.991Z,-1.69
2023-02-15T05:27:43.989Z,-1.70
2023-02-15T05:28:43.985Z,-1.70
2023-02-15T05:29:43.939Z,-1.76
2023-02-15T05:30:44.125Z,-1.73
2023-02-15T05:31:44.125Z,-1.73
2023-02-15T05:32:44.370Z,-1.74
2023-02-15T05:33:43.888Z,-1.76
2023-02-15T05:34:43.878Z,-1.79
2023-02-15T05:35:43.862Z,-1.79
2023-02-15T05:36:43.859Z,-1.80
2023-02-15T05:37:43.845Z,-1.79
2023-02-15T05:38:43.859Z,-1.72
2023-02-15T05:39:43.879Z,-1.70
2023-02-15T05:40:43.808Z,-1.69
2023-02-15T05:41:44.018Z,-1.70
2023-02-15T05:42:43.890Z,-1.72
2023-02-15T05:43:43.800Z,-1.67
2023-02-15T05:44:44.153Z,-1.62
2023-02-15T05:45:43.833Z,-1.62
2023-02-15T05:46:43.739Z,-1.59
2023-02-15T05:47:43.791Z,-1.61
2023-02-15T05:48:43.715Z,-1.61
2023-02-15T05:49:43.715Z,-1.62
2023-02-15T05:50:43.704Z,-1.69
2023-02-15T05:51:43.699Z,-1.67
2023-02-15T05:52:43.658Z,-1.67
2023-02-15T05:53:43.669Z,-1.70
2023-02-15T05:54:43.675Z,-1.69
2023-02-15T05:55:43.621Z,-1.72
2023-02-15T05:56:43.629Z,-1.66
2023-02-15T05:57:43.603Z,-1.55
2023-02-15T05:58:43.616Z,-1.51
2023-02-15T05:59:43.593Z,-1.49
2023-02-15T06:00:43.545Z,-1.49
2023-02-15T06:01:43.546Z,-1.45
2023-02-15T06:02:43.669Z,-1.45
2023-02-15T06:03:43.571Z,-1.41
2023-02-15T06:04:43.493Z,-1.41
2023-02-15T06:05:43.573Z,-1.46
2023-02-15T06:06:43.495Z,-1.48
2023-02-15T06:07:43.475Z,-1.49
2023-02-15T06:08:43.446Z,-1.49
2023-02-15T06:09:43.441Z,-1.49
2023-02-15T06:10:43.425Z,-1.49
2023-02-15T06:11:43.411Z,-1.48
2023-02-15T06:12:43.439Z,-1.49
2023-02-15T06:13:43.381Z,-1.49
2023-02-15T06:14:43.371Z,-1.51
2023-02-15T06:15:43.427Z,-1.58
2023-02-15T06:16:43.341Z,-1.56
2023-02-15T06:17:43.383Z,-1.62
2023-02-15T06:18:43.328Z,-1.66
2023-02-15T06:19:43.362Z,-1.62
2023-02-15T06:20:43.330Z,-1.59
2023-02-15T06:21:43.309Z,-1.62
2023-02-15T06:22:43.372Z,-1.59
2023-02-15T06:23:43.367Z,-1.55
2023-02-15T06:24:43.285Z,-1.54
2023-02-15T06:25:43.322Z,-1.54
2023-02-15T06:26:43.245Z,-1.55
2023-02-15T06:27:43.317Z,-1.56
2023-02-15T06:28:43.271Z,-1.59
2023-02-15T06:29:43.232Z,-1.61
2023-02-15T06:30:43.206Z,-1.66
2023-02-15T06:31:43.336Z,-1.64
2023-02-15T06:32:43.153Z,-1.70
2023-02-15T06:33:43.150Z,-1.79
2023-02-15T06:34:43.127Z,-1.84
2023-02-15T06:35:43.117Z,-1.88
2023-02-15T06:36:43.096Z,-1.87
2023-02-15T06:37:43.108Z,-1.91
2023-02-15T06:38:43.084Z,-1.94
2023-02-15T06:39:43.072Z,-1.94
2023-02-15T06:40:43.083Z,-1.97
2023-02-15T06:41:43.052Z,-1.98
2023-02-15T06:42:43.055Z,-1.98
2023-02-15T06:43:43.047Z,-1.98
2023-02-15T06:44:42.997Z,-1.98
2023-02-15T06:45:42.984Z,-2.00
2023-02-15T06:46:43.039Z,-1.98
2023-02-15T06:47:42.972Z,-1.95
2023-02-15T06:48:42.961Z,-1.98
2023-02-15T06:49:42.951Z,-1.97
2023-02-15T06:50:42.921Z,-1.94
2023-02-15T06:51:42.923Z,-1.94
2023-02-15T06:52:42.911Z,-1.91
2023-02-15T06:53:42.901Z,-1.85
2023-02-15T06:54:42.871Z,-1.88
2023-02-15T06:55:42.879Z,-1.87
2023-02-15T06:56:42.847Z,-1.77
2023-02-15T06:57:42.849Z,-1.77
2023-02-15T06:58:42.821Z,-1.76
2023-02-15T06:59:42.823Z,-1.76
2023-02-15T07:00:42.832Z,-1.74
2023-02-15T07:01:42.830Z,-1.72
2023-02-15T07:02:42.799Z,-1.69
2023-02-15T07:03:42.793Z,-1.70
2023-02-15T07:04:42.812Z,-1.72
2023-02-15T07:05:42.869Z,-1.70
2023-02-15T07:06:42.734Z,-1.73
2023-02-15T07:07:42.763Z,-1.74
2023-02-15T07:08:42.708Z,-1.72
2023-02-15T07:09:42.691Z,-1.69
2023-02-15T07:10:42.672Z,-1.62
2023-02-15T07:11:42.677Z,-1.62
2023-02-15T07:12:42.673Z,-1.54
2023-02-15T07:13:42.628Z,-1.34
2023-02-15T07:14:42.609Z,-1.35
2023-02-15T07:15:42.694Z,-1.20
2023-02-15T07:16:42.602Z,-1.13
2023-02-15T07:17:42.607Z,-1.04
2023-02-15T07:18:42.567Z,-0.95
2023-02-15T07:19:42.578Z,-0.86
2023-02-15T07:20:42.595Z,-0.83
2023-02-15T07:21:42.539Z,-0.70
2023-02-15T07:22:42.527Z,-0.65
2023-02-15T07:23:42.511Z,-0.64
2023-02-15T07:24:42.485Z,-0.52
2023-02-15T07:25:42.476Z,-0.44
2023-02-15T07:26:42.464Z,-0.40
2023-02-15T07:27:42.470Z,-0.34
2023-02-15T07:28:42.442Z,-0.36
2023-02-15T07:29:42.425Z,-0.26
2023-02-15T07:30:42.440Z,-0.22
2023-02-15T07:31:42.402Z,-0.05
2023-02-15T07:32:42.467Z,-0.03
2023-02-15T07:33:42.384Z,0.02
2023-02-15T07:34:42.369Z,0.11
2023-02-15T07:35:42.383Z,0.18
2023-02-15T07:36:42.335Z,0.20
2023-02-15T07:37:42.341Z,0.29
2023-02-15T07:38:42.389Z,0.35
2023-02-15T07:39:42.314Z,0.35
2023-02-15T07:40:42.291Z,0.46
2023-02-15T07:41:42.286Z,0.51
2023-02-15T07:42:42.279Z,0.62
2023-02-15T07:43:42.286Z,0.70
2023-02-15T07:44:42.243Z,0.75
2023-02-15T07:45:42.269Z,0.73
2023-02-15T07:46:42.286Z,0.79
2023-02-15T07:47:42.281Z,0.76
2023-02-15T07:48:42.214Z,0.76
2023-02-15T07:49:42.198Z,0.87
2023-02-15T07:50:42.193Z,0.86
2023-02-15T07:51:42.292Z,0.91
2023-02-15T07:52:42.198Z,0.96
2023-02-15T07:53:42.147Z,0.98
2023-02-15T07:54:42.179Z,1.02
2023-02-15T07:55:42.107Z,1.06
2023-02-15T07:56:42.107Z,1.06
2023-02-15T07:57:42.107Z,1.08
2023-02-15T07:58:42.066Z,1.14
2023-02-15T07:59:42.064Z,1.27
2023-02-15T08:00:42.035Z,1.26
2023-02-15T08:01:42.043Z,1.29
2023-02-15T08:02:42.080Z,1.47
2023-02-15T08:03:42.097Z,1.47
2023-02-15T08:04:41.984Z,1.45
2023-02-15T08:05:41.963Z,1.63
2023-02-15T08:06:41.960Z,1.60
2023-02-15T08:07:41.966Z,1.72
2023-02-15T08:08:41.950Z,1.83
2023-02-15T08:09:41.975Z,1.88
2023-02-15T08:10:42.180Z,1.88
2023-02-15T08:11:41.969Z,1.91
2023-02-15T08:12:41.925Z,2.03
2023-02-15T08:13:41.878Z,2.12
2023-02-15T08:14:41.872Z,2.14
2023-02-15T08:15:41.847Z,2.17
2023-02-15T08:16:41.875Z,2.20
2023-02-15T08:17:41.829Z,2.24
2023-02-15T08:18:41.830Z,2.38
2023-02-15T08:19:41.799Z,2.43
2023-02-15T08:20:41.803Z,2.45
2023-02-15T08:21:41.793Z,2.53
2023-02-15T08:22:41.836Z,2.77
2023-02-15T08:23:41.799Z,2.75
2023-02-15T08:24:41.760Z,2.79
2023-02-15T08:25:41.748Z,2.89
2023-02-15T08:26:42.436Z,2.99
2023-02-15T08:27:41.706Z,3.10
2023-02-15T08:28:41.698Z,3.06
2023-02-15T08:29:41.675Z,3.18
2023-02-15T08:30:41.680Z,3.21
2023-02-15T08:31:41.782Z,3.21
2023-02-15T08:32:41.668Z,3.21
2023-02-15T08:33:41.644Z,3.28
2023-02-15T08:34:41.635Z,3.39
2023-02-15T08:35:41.615Z,3.50
2023-02-15T08:36:41.598Z,3.72
2023-02-15T08:37:41.614Z,3.70
2023-02-15T08:38:41.574Z,3.79
2023-02-15T08:39:41.580Z,3.79
2023-02-15T08:40:41.545Z,3.98
2023-02-15T08:41:41.553Z,3.98
2023-02-15T08:42:41.525Z,4.11
2023-02-15T08:43:41.528Z,4.23
2023-02-15T08:44:41.498Z,4.33
2023-02-15T08:45:41.558Z,4.37
2023-02-15T08:46:41.481Z,4.54
2023-02-15T08:47:41.444Z,4.62
2023-02-15T08:48:41.457Z,4.60
2023-02-15T08:49:41.469Z,4.47
2023-02-15T08:50:41.414Z,4.50
2023-02-15T08:51:41.407Z,4.67
2023-02-15T08:52:41.384Z,4.82
2023-02-15T08:53:41.390Z,5.03
2023-02-15T08:54:41.364Z,5.13
2023-02-15T08:55:41.352Z,5.22
2023-02-15T08:56:41.353Z,5.22
2023-02-15T08:57:41.336Z,5.28
2023-02-15T08:58:41.374Z,5.33
2023-02-15T08:59:41.294Z,5.42
2023-02-15T09:00:41.287Z,5.40
2023-02-15T09:01:41.367Z,5.15
2023-02-15T09:02:41.298Z,5.20
2023-02-15T09:03:41.255Z,5.02
2023-02-15T09:04:41.221Z,4.75
2023-02-15T09:05:41.256Z,4.89
2023-02-15T09:06:41.226Z,5.04
2023-02-15T09:07:41.196Z,5.27
2023-02-15T09:08:41.208Z,5.43
2023-02-15T09:09:41.170Z,5.60
2023-02-15T09:10:41.165Z,5.75
2023-02-15T09:11:41.179Z,5.90
2023-02-15T09:12:41.168Z,6.03
2023-02-15T09:13:41.123Z,6.15
2023-02-15T09:14:41.104Z,6.38
2023-02-15T09:15:41.093Z,6.38
2023-02-15T09:16:41.163Z,6.43
2023-02-15T09:17:41.125Z,6.40
2023-02-15T09:18:41.058Z,6.52
2023-02-15T09:19:41.057Z,6.52
2023-02-15T09:20:41.057Z,6.77
2023-02-15T09:21:41.019Z,6.77
2023-02-15T09:22:43.687Z,6.88
2023-02-15T09:23:40.982Z,7.06
2023-02-15T09:24:40.964Z,7.13
2023-02-15T09:25:40.944Z,7.09
2023-02-15T09:26:40.927Z,7.06
2023-02-15T09:27:40.917Z,6.69
2023-02-15T09:28:40.929Z,6.62
2023-02-15T09:29:40.897Z,6.64
2023-02-15T09:30:41.036Z,6.84
2023-02-15T09:31:40.914Z,7.03
2023-02-15T09:32:40.862Z,6.94
2023-02-15T09:33:40.856Z,7.02
2023-02-15T09:34:40.825Z,7.03
2023-02-15T09:35:40.813Z,7.27
2023-02-15T09:36:40.808Z,7.28
2023-02-15T09:37:40.784Z,7.49
2023-02-15T09:38:40.789Z,7.52
2023-02-15T09:39:40.775Z,7.63
2023-02-15T09:40:40.756Z,7.75
2023-02-15T09:41:40.732Z,7.86
2023-02-15T09:42:40.723Z,7.98
2023-02-15T09:43:40.704Z,8.02
2023-02-15T09:44:40.713Z,8.15
2023-02-15T09:45:40.713Z,8.19
2023-02-15T09:46:40.671Z,8.07
2023-02-15T09:47:40.668Z,8.04
2023-02-15T09:48:40.649Z,8.07
2023-02-15T09:49:40.623Z,8.15
2023-02-15T09:50:40.621Z,8.25
2023-02-15T09:51:40.608Z,8.28
2023-02-15T09:52:40.593Z,8.29
2023-02-15T09:53:40.593Z,8.38
2023-02-15T09:54:40.565Z,8.48
2023-02-15T09:55:40.564Z,8.53
2023-02-15T09:56:40.554Z,8.55
2023-02-15T09:57:40.522Z,8.63
2023-02-15T09:58:40.523Z,8.68
2023-02-15T09:59:40.501Z,8.73
2023-02-15T10:00:40.494Z,8.83
2023-02-15T10:01:40.515Z,8.92
2023-02-15T10:02:40.476Z,8.94
2023-02-15T10:03:40.454Z,9.02
2023-02-15T10:04:40.468Z,9.10
2023-02-15T10:05:40.470Z,9.08
2023-02-15T10:06:40.429Z,8.95
2023-02-15T10:07:40.387Z,8.81
2023-02-15T10:08:40.417Z,8.66
2023-02-15T10:09:40.404Z,8.41
2023-02-15T10:10:40.354Z,8.50
2023-02-15T10:11:40.411Z,8.59
2023-02-15T10:12:40.336Z,8.76
2023-02-15T10:13:40.341Z,8.76
2023-02-15T10:14:40.304Z,8.77
2023-02-15T10:15:40.287Z,8.81
2023-02-15T10:16:40.406Z,8.76
2023-02-15T10:17:40.254Z,8.79
2023-02-15T10:18:40.282Z,8.86
2023-02-15T10:19:40.223Z,8.95
2023-02-15T10:20:40.244Z,8.96
2023-02-15T10:21:40.202Z,9.05
2023-02-15T10:22:40.207Z,9.10
2023-02-15T10:23:40.203Z,9.20
2023-02-15T10:24:42.638Z,9.29
2023-02-15T10:25:40.145Z,9.36
2023-02-15T10:26:40.155Z,9.48
2023-02-15T10:27:40.124Z,9.64
2023-02-15T10:28:40.131Z,9.68
2023-02-15T10:29:40.092Z,9.76
2023-02-15T10:30:40.305Z,9.68
2023-02-15T10:31:40.199Z,9.64
2023-02-15T10:32:40.072Z,9.64
2023-02-15T10:33:40.075Z,9.71
2023-02-15T10:34:40.032Z,9.76
2023-02-15T10:35:40.038Z,9.56
2023-02-15T10:36:40.026Z,9.60
2023-02-15T10:37:40.002Z,9.68
2023-02-15T10:38:40.002Z,9.76
2023-02-15T10:39:39.990Z,9.96
2023-02-15T10:40:39.958Z,10.09
2023-02-15T10:41:39.940Z,10.20
2023-02-15T10:42:39.935Z,10.38
2023-02-15T10:43:39.933Z,10.45
2023-02-15T10:44:39.899Z,10.53
2023-02-15T10:45:39.884Z,10.63
2023-02-15T10:46:39.883Z,10.67
2023-02-15T10:47:39.869Z,10.73
2023-02-15T10:48:39.869Z,10.81
2023-02-15T10:49:39.832Z,10.96
2023-02-15T10:50:39.837Z,11.02
2023-02-15T10:51:39.800Z,11.06
2023-02-15T10:52:39.801Z,11.14
2023-02-15T10:53:39.915Z,11.19
2023-02-15T10:54:39.789Z,11.32
2023-02-15T10:55:39.748Z,11.27
2023-02-15T10:56:39.764Z,11.29
2023-02-15T10:57:39.737Z,11.37
2023-02-15T10:58:39.729Z,11.42
2023-02-15T10:59:39.720Z,11.47
2023-02-15T11:00:39.696Z,11.46
2023-02-15T11:01:39.802Z,11.43
2023-02-15T11:02:39.685Z,11.43
2023-02-15T11:03:39.716Z,11.32
2023-02-15T11:04:39.755Z,11.22
2023-02-15T11:05:39.643Z,11.22
2023-02-15T11:06:39.616Z,11.29
2023-02-15T11:07:39.604Z,11.36
2023-02-15T11:08:39.605Z,11.44
2023-02-15T11:09:39.584Z,11.54
2023-02-15T11:10:39.578Z,11.36
2023-02-15T11:11:39.547Z,11.39
2023-02-15T11:12:39.603Z,11.51
2023-02-15T11:13:39.535Z,11.64
2023-02-15T11:14:39.517Z,11.79
2023-02-15T11:15:39.515Z,11.82
2023-02-15T11:16:39.486Z,11.62
2023-02-15T11:17:39.468Z,11.29
2023-02-15T11:18:39.469Z,11.36
2023-02-15T11:19:39.499Z,11.22
2023-02-15T11:20:39.448Z,11.03
2023-02-15T11:21:39.424Z,11.04
2023-02-15T11:22:39.428Z,11.14
2023-02-15T11:23:39.413Z,11.10
2023-02-15T11:24:39.384Z,11.00
2023-02-15T11:25:39.364Z,11.11
2023-02-15T11:26:39.354Z,11.27
2023-02-15T11:27:39.450Z,11.40
2023-02-15T11:28:39.376Z,11.58
2023-02-15T11:29:39.325Z,11.72
2023-02-15T11:30:39.403Z,11.85
2023-02-15T11:31:39.460Z,11.90
2023-02-15T11:32:39.319Z,11.94
2023-02-15T11:33:39.294Z,11.98
2023-02-15T11:34:39.270Z,12.05
2023-02-15T11:35:39.242Z,12.05
2023-02-15T11:36:39.224Z,12.04
2023-02-15T11:37:39.220Z,12.05
2023-02-15T11:38:39.209Z,11.49
2023-02-15T11:39:39.181Z,11.55
2023-02-15T11:40:39.188Z,11.64
2023-02-15T11:41:39.181Z,11.70
2023-02-15T11:42:39.164Z,11.76
2023-02-15T11:43:39.136Z,11.65
2023-02-15T11:44:39.291Z,11.73
2023-02-15T11:45:39.108Z,11.61
2023-02-15T11:46:39.142Z,11.70
2023-02-15T11:47:39.086Z,11.85
2023-02-15T11:48:39.071Z,12.04
2023-02-15T11:49:39.061Z,12.02
2023-02-15T11:50:39.049Z,12.05
2023-02-15T11:51:39.041Z,12.10
2023-02-15T11:52:39.031Z,12.12
2023-02-15T11:53:39.002Z,12.10
2023-02-15T11:54:39.006Z,11.96
2023-02-15T11:55:38.983Z,11.94
2023-02-15T11:56:38.961Z,11.79
2023-02-15T11:57:38.965Z,11.46
2023-02-15T11:58:38.971Z,11.21
2023-02-15T11:59:38.951Z,11.24
2023-02-15T12:00:38.911Z,11.33
2023-02-15T12:01:38.897Z,11.40
2023-02-15T12:02:38.931Z,11.37
2023-02-15T12:03:38.929Z,11.39
2023-02-15T12:04:38.882Z,11.43
2023-02-15T12:05:38.839Z,11.46
2023-02-15T12:06:38.860Z,11.51
2023-02-15T12:07:38.822Z,11.54
2023-02-15T12:08:38.823Z,11.61
2023-02-15T12:09:38.835Z,11.58
2023-02-15T12:10:38.792Z,11.47
2023-02-15T12:11:38.771Z,11.47
2023-02-15T12:12:38.758Z,11.42
2023-02-15T12:13:38.738Z,11.46
2023-02-15T12:14:38.760Z,11.60
2023-02-15T12:15:38.716Z,11.70
2023-02-15T12:16:38.709Z,11.75
2023-02-15T12:17:38.699Z,11.85
2023-02-15T12:18:38.679Z,11.94
2023-02-15T12:19:38.680Z,12.05
2023-02-15T12:20:38.658Z,12.16
2023-02-15T12:21:38.657Z,12.21
2023-02-15T12:22:38.623Z,12.19
2023-02-15T12:23:38.651Z,12.23
2023-02-15T12:24:38.629Z,12.27
2023-02-15T12:25:38.611Z,12.27
2023-02-15T12:26:38.572Z,11.61
2023-02-15T12:27:38.561Z,11.61
2023-02-15T12:28:40.896Z,11.67
2023-02-15T12:29:38.567Z,11.75
2023-02-15T12:30:38.558Z,11.78
2023-02-15T12:31:38.612Z,11.57
2023-02-15T12:32:38.497Z,11.11
2023-02-15T12:33:38.559Z,11.10
2023-02-15T12:34:38.478Z,10.92
2023-02-15T12:35:38.458Z,11.11
2023-02-15T12:36:38.500Z,11.14
2023-02-15T12:37:38.445Z,11.06
2023-02-15T12:38:38.412Z,11.17
2023-02-15T12:39:38.460Z,11.11
2023-02-15T12:40:38.400Z,11.07
2023-02-15T12:41:38.403Z,11.29
2023-02-15T12:42:38.368Z,11.21
2023-02-15T12:43:38.369Z,11.24
2023-02-15T12:44:38.356Z,11.15
2023-02-15T12:45:38.348Z,11.21
2023-02-15T12:46:38.552Z,11.10
2023-02-15T12:47:38.323Z,11.15
2023-02-15T12:48:40.614Z,11.36
2023-02-15T12:49:38.301Z,11.64
2023-02-15T12:50:38.267Z,11.78
2023-02-15T12:51:43.202Z,11.86
2023-02-15T12:52:39.248Z,11.91
2023-02-15T12:53:38.241Z,11.80
2023-02-15T12:54:38.219Z,11.76
2023-02-15T12:55:45.328Z,11.82
2023-02-15T12:56:39.188Z,11.95
2023-02-15T12:57:38.177Z,12.05
2023-02-15T12:58:38.161Z,12.09
2023-02-15T12:59:38.156Z,11.94
2023-02-15T13:00:38.224Z,12.05